sensor_id;sensor_type;location;lat;lon;timestamp;temperature;humidity
26954;DHT22;14508;50.924;11.600;2023-12-20T00:01:19;6.00;99.90
26954;DHT22;14508;50.924;11.600;2023-12-20T00:03:47;6.00;99.90
26954;DHT22;14508;50.924;11.600;2023-12-20T00:06:15;6.00;99.90
26954;DHT22;14508;50.924;11.600;2023-12-20T00:08:43;6.00;99.90
26954;DHT22;14508;50.924;11.600;2023-12-20T00:11:12;6.00;99.90
26954;DHT22;14508;50.924;11.600;2023-12-20T00:13:40;6.00;99.90
26954;DHT22;14508;50.924;11.600;2023-12-20T00:16:09;6.00;99.90
26954;DHT22;14508;50.924;11.600;2023-12-20T00:18:37;6.00;99.90
26954;DHT22;14508;50.924;11.600;2023-12-20T00:21:05;6.00;99.90
26954;DHT22;14508;50.924;11.600;2023-12-20T00:23:33;5.90;99.90
26954;DHT22;14508;50.924;11.600;2023-12-20T00:26:01;5.90;99.90
26954;DHT22;14508;50.924;11.600;2023-12-20T00:28:30;5.90;99.90
26954;DHT22;14508;50.924;11.600;2023-12-20T00:30:58;5.90;99.90
26954;DHT22;14508;50.924;11.600;2023-12-20T00:33:26;5.90;99.90
26954;DHT22;14508;50.924;11.600;2023-12-20T00:35:54;5.90;99.90
26954;DHT22;14508;50.924;11.600;2023-12-20T00:38:22;5.90;99.90
26954;DHT22;14508;50.924;11.600;2023-12-20T00:40:50;5.90;99.90
26954;DHT22;14508;50.924;11.600;2023-12-20T00:43:17;5.90;99.90
26954;DHT22;14508;50.924;11.600;2023-12-20T00:45:47;5.90;99.90
26954;DHT22;14508;50.924;11.600;2023-12-20T00:48:15;5.90;99.90
26954;DHT22;14508;50.924;11.600;2023-12-20T00:50:43;5.90;99.90
26954;DHT22;14508;50.924;11.600;2023-12-20T00:53:10;5.90;99.90
26954;DHT22;14508;50.924;11.600;2023-12-20T00:55:38;5.90;99.90
26954;DHT22;14508;50.924;11.600;2023-12-20T00:58:07;5.90;99.90
26954;DHT22;14508;50.924;11.600;2023-12-20T01:00:35;5.90;99.90
26954;DHT22;14508;50.924;11.600;2023-12-20T01:03:04;5.90;99.90
26954;DHT22;14508;50.924;11.600;2023-12-20T01:05:32;5.90;99.90
26954;DHT22;14508;50.924;11.600;2023-12-20T01:08:00;5.90;99.90
26954;DHT22;14508;50.924;11.600;2023-12-20T01:10:29;6.00;99.90
26954;DHT22;14508;50.924;11.600;2023-12-20T01:12:57;6.00;99.90
26954;DHT22;14508;50.924;11.600;2023-12-20T01:15:25;6.00;99.90
26954;DHT22;14508;50.924;11.600;2023-12-20T01:17:53;6.00;99.90
26954;DHT22;14508;50.924;11.600;2023-12-20T01:20:22;6.00;99.90
26954;DHT22;14508;50.924;11.600;2023-12-20T01:22:50;6.00;99.90
26954;DHT22;14508;50.924;11.600;2023-12-20T01:25:18;6.10;99.90
26954;DHT22;14508;50.924;11.600;2023-12-20T01:27:46;6.00;99.90
26954;DHT22;14508;50.924;11.600;2023-12-20T01:30:15;6.00;99.90
26954;DHT22;14508;50.924;11.600;2023-12-20T01:32:43;6.10;99.90
26954;DHT22;14508;50.924;11.600;2023-12-20T01:35:10;6.10;99.90
26954;DHT22;14508;50.924;11.600;2023-12-20T01:37:41;6.10;99.90
26954;DHT22;14508;50.924;11.600;2023-12-20T01:40:10;6.00;99.90
26954;DHT22;14508;50.924;11.600;2023-12-20T01:42:38;6.00;99.90
26954;DHT22;14508;50.924;11.600;2023-12-20T01:45:06;6.10;99.90
26954;DHT22;14508;50.924;11.600;2023-12-20T01:47:36;6.00;99.90
26954;DHT22;14508;50.924;11.600;2023-12-20T01:50:05;6.00;99.90
26954;DHT22;14508;50.924;11.600;2023-12-20T01:52:35;6.00;99.90
26954;DHT22;14508;50.924;11.600;2023-12-20T01:55:06;6.10;99.90
26954;DHT22;14508;50.924;11.600;2023-12-20T01:57:40;6.10;99.90
26954;DHT22;14508;50.924;11.600;2023-12-20T02:00:09;6.10;99.90
26954;DHT22;14508;50.924;11.600;2023-12-20T02:02:39;6.10;99.90
26954;DHT22;14508;50.924;11.600;2023-12-20T02:05:08;6.10;99.90
26954;DHT22;14508;50.924;11.600;2023-12-20T02:07:36;6.10;99.90
26954;DHT22;14508;50.924;11.600;2023-12-20T02:10:07;6.10;99.90
26954;DHT22;14508;50.924;11.600;2023-12-20T02:12:35;6.10;99.90
26954;DHT22;14508;50.924;11.600;2023-12-20T02:15:03;6.10;99.90
26954;DHT22;14508;50.924;11.600;2023-12-20T02:17:32;6.10;99.90
26954;DHT22;14508;50.924;11.600;2023-12-20T02:20:00;6.10;99.90
26954;DHT22;14508;50.924;11.600;2023-12-20T02:22:29;6.10;99.90
26954;DHT22;14508;50.924;11.600;2023-12-20T02:24:57;6.10;99.90
26954;DHT22;14508;50.924;11.600;2023-12-20T02:27:25;6.10;99.90
26954;DHT22;14508;50.924;11.600;2023-12-20T02:29:53;6.10;99.90
26954;DHT22;14508;50.924;11.600;2023-12-20T02:32:21;6.10;99.90
26954;DHT22;14508;50.924;11.600;2023-12-20T02:34:52;6.10;99.90
26954;DHT22;14508;50.924;11.600;2023-12-20T02:37:21;6.10;99.90
26954;DHT22;14508;50.924;11.600;2023-12-20T02:39:50;6.10;99.90
26954;DHT22;14508;50.924;11.600;2023-12-20T02:42:18;6.20;99.90
26954;DHT22;14508;50.924;11.600;2023-12-20T02:44:46;6.20;99.90
26954;DHT22;14508;50.924;11.600;2023-12-20T02:47:13;6.20;99.90
26954;DHT22;14508;50.924;11.600;2023-12-20T02:49:41;6.10;99.90
26954;DHT22;14508;50.924;11.600;2023-12-20T02:52:09;6.20;99.90
26954;DHT22;14508;50.924;11.600;2023-12-20T02:54:37;6.20;99.90
26954;DHT22;14508;50.924;11.600;2023-12-20T02:57:06;6.20;99.90
26954;DHT22;14508;50.924;11.600;2023-12-20T02:59:34;6.20;99.90
26954;DHT22;14508;50.924;11.600;2023-12-20T03:02:02;6.20;99.90
26954;DHT22;14508;50.924;11.600;2023-12-20T03:04:30;6.10;99.90
26954;DHT22;14508;50.924;11.600;2023-12-20T03:06:58;6.10;99.90
26954;DHT22;14508;50.924;11.600;2023-12-20T03:09:26;6.10;99.90
26954;DHT22;14508;50.924;11.600;2023-12-20T03:11:58;6.10;99.90
26954;DHT22;14508;50.924;11.600;2023-12-20T03:14:27;6.10;99.90
26954;DHT22;14508;50.924;11.600;2023-12-20T03:16:55;6.10;99.90
26954;DHT22;14508;50.924;11.600;2023-12-20T03:19:26;6.10;99.90
26954;DHT22;14508;50.924;11.600;2023-12-20T03:21:54;6.10;99.90
26954;DHT22;14508;50.924;11.600;2023-12-20T03:24:22;6.10;99.90
26954;DHT22;14508;50.924;11.600;2023-12-20T03:26:49;6.10;99.90
26954;DHT22;14508;50.924;11.600;2023-12-20T03:29:17;6.10;99.90
26954;DHT22;14508;50.924;11.600;2023-12-20T03:31:47;6.10;99.90
26954;DHT22;14508;50.924;11.600;2023-12-20T03:34:14;6.10;99.90
26954;DHT22;14508;50.924;11.600;2023-12-20T03:36:43;6.10;99.90
26954;DHT22;14508;50.924;11.600;2023-12-20T03:39:10;6.10;99.90
26954;DHT22;14508;50.924;11.600;2023-12-20T03:41:38;6.10;99.90
26954;DHT22;14508;50.924;11.600;2023-12-20T03:44:06;6.10;99.90
26954;DHT22;14508;50.924;11.600;2023-12-20T03:46:34;6.20;99.90
26954;DHT22;14508;50.924;11.600;2023-12-20T03:49:03;6.10;99.90
26954;DHT22;14508;50.924;11.600;2023-12-20T03:51:31;6.10;99.90
26954;DHT22;14508;50.924;11.600;2023-12-20T03:53:59;6.10;99.90
26954;DHT22;14508;50.924;11.600;2023-12-20T03:56:27;6.10;99.90
26954;DHT22;14508;50.924;11.600;2023-12-20T03:58:55;6.20;99.90
26954;DHT22;14508;50.924;11.600;2023-12-20T04:01:22;6.20;99.90
26954;DHT22;14508;50.924;11.600;2023-12-20T04:03:50;6.20;99.90
26954;DHT22;14508;50.924;11.600;2023-12-20T04:06:20;6.20;99.90
26954;DHT22;14508;50.924;11.600;2023-12-20T04:08:48;6.20;99.90
26954;DHT22;14508;50.924;11.600;2023-12-20T04:11:15;6.20;99.90
26954;DHT22;14508;50.924;11.600;2023-12-20T04:13:43;6.20;99.90
26954;DHT22;14508;50.924;11.600;2023-12-20T04:16:11;6.20;99.90
26954;DHT22;14508;50.924;11.600;2023-12-20T04:18:39;6.20;99.90
26954;DHT22;14508;50.924;11.600;2023-12-20T04:21:07;6.30;99.90
26954;DHT22;14508;50.924;11.600;2023-12-20T04:23:36;6.20;99.90
26954;DHT22;14508;50.924;11.600;2023-12-20T04:26:04;6.30;99.90
26954;DHT22;14508;50.924;11.600;2023-12-20T04:28:32;6.30;99.90
26954;DHT22;14508;50.924;11.600;2023-12-20T04:31:00;6.30;99.90
26954;DHT22;14508;50.924;11.600;2023-12-20T04:33:28;6.30;99.90
26954;DHT22;14508;50.924;11.600;2023-12-20T04:35:56;6.30;99.90
26954;DHT22;14508;50.924;11.600;2023-12-20T04:38:24;6.30;99.90
26954;DHT22;14508;50.924;11.600;2023-12-20T04:40:53;6.30;99.90
26954;DHT22;14508;50.924;11.600;2023-12-20T04:43:21;6.40;99.90
26954;DHT22;14508;50.924;11.600;2023-12-20T04:45:49;6.40;99.90
26954;DHT22;14508;50.924;11.600;2023-12-20T04:48:17;6.40;99.90
26954;DHT22;14508;50.924;11.600;2023-12-20T04:50:44;6.40;99.90
26954;DHT22;14508;50.924;11.600;2023-12-20T04:53:12;6.40;99.90
26954;DHT22;14508;50.924;11.600;2023-12-20T04:55:40;6.30;99.90
26954;DHT22;14508;50.924;11.600;2023-12-20T04:58:09;6.30;99.90
26954;DHT22;14508;50.924;11.600;2023-12-20T05:00:37;6.30;99.90
26954;DHT22;14508;50.924;11.600;2023-12-20T05:03:05;6.30;99.90
26954;DHT22;14508;50.924;11.600;2023-12-20T05:05:33;6.40;99.90
26954;DHT22;14508;50.924;11.600;2023-12-20T05:08:02;6.40;99.90
26954;DHT22;14508;50.924;11.600;2023-12-20T05:10:31;6.40;99.90
26954;DHT22;14508;50.924;11.600;2023-12-20T05:12:58;6.40;99.90
26954;DHT22;14508;50.924;11.600;2023-12-20T05:15:28;6.40;99.90
26954;DHT22;14508;50.924;11.600;2023-12-20T05:17:56;6.40;99.90
26954;DHT22;14508;50.924;11.600;2023-12-20T05:20:24;6.40;99.90
26954;DHT22;14508;50.924;11.600;2023-12-20T05:22:52;6.40;99.90
26954;DHT22;14508;50.924;11.600;2023-12-20T05:25:20;6.40;99.90
26954;DHT22;14508;50.924;11.600;2023-12-20T05:27:48;6.30;99.90
26954;DHT22;14508;50.924;11.600;2023-12-20T05:30:16;6.40;99.90
26954;DHT22;14508;50.924;11.600;2023-12-20T05:32:45;6.40;99.90
26954;DHT22;14508;50.924;11.600;2023-12-20T05:35:13;6.40;99.90
26954;DHT22;14508;50.924;11.600;2023-12-20T05:37:42;6.40;99.90
26954;DHT22;14508;50.924;11.600;2023-12-20T05:40:10;6.40;99.90
26954;DHT22;14508;50.924;11.600;2023-12-20T05:42:39;6.40;99.90
26954;DHT22;14508;50.924;11.600;2023-12-20T05:45:07;6.40;99.90
26954;DHT22;14508;50.924;11.600;2023-12-20T05:47:35;6.50;99.90
26954;DHT22;14508;50.924;11.600;2023-12-20T05:50:05;6.50;99.90
26954;DHT22;14508;50.924;11.600;2023-12-20T05:52:33;6.50;99.90
26954;DHT22;14508;50.924;11.600;2023-12-20T05:55:01;6.50;99.90
26954;DHT22;14508;50.924;11.600;2023-12-20T05:57:29;6.50;99.90
26954;DHT22;14508;50.924;11.600;2023-12-20T05:59:57;6.50;99.90
26954;DHT22;14508;50.924;11.600;2023-12-20T06:02:25;6.50;99.90
26954;DHT22;14508;50.924;11.600;2023-12-20T06:04:53;6.60;99.90
26954;DHT22;14508;50.924;11.600;2023-12-20T06:07:22;6.50;99.90
26954;DHT22;14508;50.924;11.600;2023-12-20T06:09:50;6.60;99.90
26954;DHT22;14508;50.924;11.600;2023-12-20T06:12:18;6.60;99.90
26954;DHT22;14508;50.924;11.600;2023-12-20T06:14:46;6.60;99.90
26954;DHT22;14508;50.924;11.600;2023-12-20T06:17:14;6.60;99.90
26954;DHT22;14508;50.924;11.600;2023-12-20T06:19:42;6.60;99.90
26954;DHT22;14508;50.924;11.600;2023-12-20T06:22:11;6.60;99.90
26954;DHT22;14508;50.924;11.600;2023-12-20T06:24:41;6.60;99.90
26954;DHT22;14508;50.924;11.600;2023-12-20T06:27:09;6.60;99.90
26954;DHT22;14508;50.924;11.600;2023-12-20T06:29:36;6.60;99.90
26954;DHT22;14508;50.924;11.600;2023-12-20T06:32:05;6.70;99.90
26954;DHT22;14508;50.924;11.600;2023-12-20T06:34:33;6.70;99.90
26954;DHT22;14508;50.924;11.600;2023-12-20T06:37:01;6.70;99.90
26954;DHT22;14508;50.924;11.600;2023-12-20T06:39:29;6.70;99.90
26954;DHT22;14508;50.924;11.600;2023-12-20T06:41:58;6.70;99.90
26954;DHT22;14508;50.924;11.600;2023-12-20T06:44:26;6.70;99.90
26954;DHT22;14508;50.924;11.600;2023-12-20T06:46:54;6.70;99.90
26954;DHT22;14508;50.924;11.600;2023-12-20T06:49:22;6.70;99.90
26954;DHT22;14508;50.924;11.600;2023-12-20T06:51:50;6.70;99.90
26954;DHT22;14508;50.924;11.600;2023-12-20T06:54:20;6.70;99.90
26954;DHT22;14508;50.924;11.600;2023-12-20T06:56:47;6.70;99.90
26954;DHT22;14508;50.924;11.600;2023-12-20T06:59:17;6.70;99.90
26954;DHT22;14508;50.924;11.600;2023-12-20T07:01:47;6.70;99.90
26954;DHT22;14508;50.924;11.600;2023-12-20T07:04:16;6.60;99.90
26954;DHT22;14508;50.924;11.600;2023-12-20T07:06:47;6.50;99.90
26954;DHT22;14508;50.924;11.600;2023-12-20T07:09:18;6.30;99.90
26954;DHT22;14508;50.924;11.600;2023-12-20T07:11:46;6.10;99.90
26954;DHT22;14508;50.924;11.600;2023-12-20T07:14:14;6.10;99.90
26954;DHT22;14508;50.924;11.600;2023-12-20T07:16:43;6.00;99.90
26954;DHT22;14508;50.924;11.600;2023-12-20T07:19:11;5.90;99.90
26954;DHT22;14508;50.924;11.600;2023-12-20T07:21:39;5.80;99.90
26954;DHT22;14508;50.924;11.600;2023-12-20T07:24:07;5.70;99.90
26954;DHT22;14508;50.924;11.600;2023-12-20T07:26:35;5.70;99.90
26954;DHT22;14508;50.924;11.600;2023-12-20T07:29:04;5.70;99.90
26954;DHT22;14508;50.924;11.600;2023-12-20T07:31:33;5.60;99.90
26954;DHT22;14508;50.924;11.600;2023-12-20T07:34:03;5.60;99.90
26954;DHT22;14508;50.924;11.600;2023-12-20T07:36:31;5.50;99.90
26954;DHT22;14508;50.924;11.600;2023-12-20T07:38:58;5.50;99.90
26954;DHT22;14508;50.924;11.600;2023-12-20T07:41:26;5.50;99.90
26954;DHT22;14508;50.924;11.600;2023-12-20T07:43:54;5.60;99.90
26954;DHT22;14508;50.924;11.600;2023-12-20T07:46:23;5.60;99.90
26954;DHT22;14508;50.924;11.600;2023-12-20T07:48:51;5.70;99.90
26954;DHT22;14508;50.924;11.600;2023-12-20T07:51:20;5.80;99.90
26954;DHT22;14508;50.924;11.600;2023-12-20T07:53:48;5.80;99.90
26954;DHT22;14508;50.924;11.600;2023-12-20T07:56:17;5.70;99.90
26954;DHT22;14508;50.924;11.600;2023-12-20T07:58:45;5.70;99.90
26954;DHT22;14508;50.924;11.600;2023-12-20T08:01:19;5.60;99.90
26954;DHT22;14508;50.924;11.600;2023-12-20T08:03:49;5.60;99.90
26954;DHT22;14508;50.924;11.600;2023-12-20T08:06:20;5.50;99.90
26954;DHT22;14508;50.924;11.600;2023-12-20T08:08:49;5.50;99.90
26954;DHT22;14508;50.924;11.600;2023-12-20T08:11:28;5.50;99.90
26954;DHT22;14508;50.924;11.600;2023-12-20T08:13:56;5.50;99.90
26954;DHT22;14508;50.924;11.600;2023-12-20T08:16:24;5.50;99.90
26954;DHT22;14508;50.924;11.600;2023-12-20T08:18:52;5.60;99.90
26954;DHT22;14508;50.924;11.600;2023-12-20T08:21:22;5.60;99.90
26954;DHT22;14508;50.924;11.600;2023-12-20T08:23:50;5.70;99.90
26954;DHT22;14508;50.924;11.600;2023-12-20T08:26:19;5.80;99.90
26954;DHT22;14508;50.924;11.600;2023-12-20T08:28:49;5.90;99.90
26954;DHT22;14508;50.924;11.600;2023-12-20T08:31:17;6.00;99.90
26954;DHT22;14508;50.924;11.600;2023-12-20T08:33:47;6.10;99.90
26954;DHT22;14508;50.924;11.600;2023-12-20T08:36:15;6.20;99.90
26954;DHT22;14508;50.924;11.600;2023-12-20T08:38:46;6.30;99.90
26954;DHT22;14508;50.924;11.600;2023-12-20T08:41:13;6.40;99.90
26954;DHT22;14508;50.924;11.600;2023-12-20T08:43:41;6.40;99.90
26954;DHT22;14508;50.924;11.600;2023-12-20T08:46:09;6.50;99.90
26954;DHT22;14508;50.924;11.600;2023-12-20T08:48:38;6.50;99.90
26954;DHT22;14508;50.924;11.600;2023-12-20T08:51:06;6.40;99.90
26954;DHT22;14508;50.924;11.600;2023-12-20T08:53:35;6.40;99.90
26954;DHT22;14508;50.924;11.600;2023-12-20T08:56:05;6.30;99.90
26954;DHT22;14508;50.924;11.600;2023-12-20T08:58:33;6.20;99.90
26954;DHT22;14508;50.924;11.600;2023-12-20T09:01:03;6.10;99.90
26954;DHT22;14508;50.924;11.600;2023-12-20T09:03:31;6.10;99.90
26954;DHT22;14508;50.924;11.600;2023-12-20T09:05:59;6.10;99.90
26954;DHT22;14508;50.924;11.600;2023-12-20T09:08:27;6.10;99.90
26954;DHT22;14508;50.924;11.600;2023-12-20T09:10:55;6.00;99.90
26954;DHT22;14508;50.924;11.600;2023-12-20T09:13:24;6.00;99.90
26954;DHT22;14508;50.924;11.600;2023-12-20T09:15:55;6.00;99.90
26954;DHT22;14508;50.924;11.600;2023-12-20T09:18:23;6.00;99.90
26954;DHT22;14508;50.924;11.600;2023-12-20T09:20:51;5.90;99.90
26954;DHT22;14508;50.924;11.600;2023-12-20T09:23:19;5.90;99.90
26954;DHT22;14508;50.924;11.600;2023-12-20T09:25:47;5.90;99.90
26954;DHT22;14508;50.924;11.600;2023-12-20T09:28:15;5.90;99.90
26954;DHT22;14508;50.924;11.600;2023-12-20T09:30:44;6.00;99.90
26954;DHT22;14508;50.924;11.600;2023-12-20T09:33:13;6.00;99.90
26954;DHT22;14508;50.924;11.600;2023-12-20T09:35:41;6.10;99.90
26954;DHT22;14508;50.924;11.600;2023-12-20T09:38:09;6.20;99.90
26954;DHT22;14508;50.924;11.600;2023-12-20T09:40:41;6.30;99.90
26954;DHT22;14508;50.924;11.600;2023-12-20T09:43:13;6.40;99.90
26954;DHT22;14508;50.924;11.600;2023-12-20T09:45:44;6.50;99.90
26954;DHT22;14508;50.924;11.600;2023-12-20T09:48:13;6.50;99.90
26954;DHT22;14508;50.924;11.600;2023-12-20T09:50:43;6.50;99.90
26954;DHT22;14508;50.924;11.600;2023-12-20T09:53:19;6.50;99.90
26954;DHT22;14508;50.924;11.600;2023-12-20T09:55:50;6.40;99.90
26954;DHT22;14508;50.924;11.600;2023-12-20T09:58:18;6.40;99.90
26954;DHT22;14508;50.924;11.600;2023-12-20T10:00:48;6.40;99.90
26954;DHT22;14508;50.924;11.600;2023-12-20T10:03:18;6.30;99.90
26954;DHT22;14508;50.924;11.600;2023-12-20T10:05:47;6.30;99.90
26954;DHT22;14508;50.924;11.600;2023-12-20T10:08:21;6.30;99.90
26954;DHT22;14508;50.924;11.600;2023-12-20T10:10:49;6.30;99.90
26954;DHT22;14508;50.924;11.600;2023-12-20T10:13:18;6.30;99.90
26954;DHT22;14508;50.924;11.600;2023-12-20T10:15:47;6.40;99.90
26954;DHT22;14508;50.924;11.600;2023-12-20T10:18:17;6.50;99.90
26954;DHT22;14508;50.924;11.600;2023-12-20T10:20:45;6.60;99.90
26954;DHT22;14508;50.924;11.600;2023-12-20T10:23:15;6.70;99.90
26954;DHT22;14508;50.924;11.600;2023-12-20T10:25:55;6.80;99.90
26954;DHT22;14508;50.924;11.600;2023-12-20T10:28:23;6.90;99.90
26954;DHT22;14508;50.924;11.600;2023-12-20T10:30:55;7.00;99.90
26954;DHT22;14508;50.924;11.600;2023-12-20T10:33:25;7.00;99.90
26954;DHT22;14508;50.924;11.600;2023-12-20T10:35:56;6.90;99.90
26954;DHT22;14508;50.924;11.600;2023-12-20T10:38:24;7.00;99.90
26954;DHT22;14508;50.924;11.600;2023-12-20T10:40:54;7.10;99.90
26954;DHT22;14508;50.924;11.600;2023-12-20T10:43:24;7.10;99.90
26954;DHT22;14508;50.924;11.600;2023-12-20T10:45:53;7.20;99.90
26954;DHT22;14508;50.924;11.600;2023-12-20T10:48:24;7.30;99.90
26954;DHT22;14508;50.924;11.600;2023-12-20T10:50:56;7.40;99.90
26954;DHT22;14508;50.924;11.600;2023-12-20T10:53:25;7.50;99.90
26954;DHT22;14508;50.924;11.600;2023-12-20T10:55:55;7.60;99.90
26954;DHT22;14508;50.924;11.600;2023-12-20T10:58:25;7.60;99.90
26954;DHT22;14508;50.924;11.600;2023-12-20T11:00:58;7.70;99.90
26954;DHT22;14508;50.924;11.600;2023-12-20T11:03:32;7.90;99.90
26954;DHT22;14508;50.924;11.600;2023-12-20T11:06:03;8.10;99.90
26954;DHT22;14508;50.924;11.600;2023-12-20T11:08:35;8.20;99.90
26954;DHT22;14508;50.924;11.600;2023-12-20T11:11:06;8.20;99.90
26954;DHT22;14508;50.924;11.600;2023-12-20T11:13:37;8.10;99.90
26954;DHT22;14508;50.924;11.600;2023-12-20T11:16:08;8.20;99.90
26954;DHT22;14508;50.924;11.600;2023-12-20T11:18:40;8.20;99.90
26954;DHT22;14508;50.924;11.600;2023-12-20T11:21:10;8.20;99.90
26954;DHT22;14508;50.924;11.600;2023-12-20T11:23:42;8.10;99.90
26954;DHT22;14508;50.924;11.600;2023-12-20T11:26:10;8.10;99.90
26954;DHT22;14508;50.924;11.600;2023-12-20T11:28:38;8.20;99.90
26954;DHT22;14508;50.924;11.600;2023-12-20T11:31:06;8.30;99.90
26954;DHT22;14508;50.924;11.600;2023-12-20T11:33:40;8.10;99.90
26954;DHT22;14508;50.924;11.600;2023-12-20T11:36:13;8.00;99.90
26954;DHT22;14508;50.924;11.600;2023-12-20T11:38:54;8.00;99.90
26954;DHT22;14508;50.924;11.600;2023-12-20T11:41:24;8.00;99.90
26954;DHT22;14508;50.924;11.600;2023-12-20T11:43:53;8.10;99.90
26954;DHT22;14508;50.924;11.600;2023-12-20T11:46:22;8.10;99.90
26954;DHT22;14508;50.924;11.600;2023-12-20T11:48:51;8.20;99.90
26954;DHT22;14508;50.924;11.600;2023-12-20T11:51:20;8.20;99.90
26954;DHT22;14508;50.924;11.600;2023-12-20T11:53:51;8.20;99.90
26954;DHT22;14508;50.924;11.600;2023-12-20T11:56:19;8.20;99.90
26954;DHT22;14508;50.924;11.600;2023-12-20T11:58:47;8.10;99.90
26954;DHT22;14508;50.924;11.600;2023-12-20T12:01:19;8.10;99.90
26954;DHT22;14508;50.924;11.600;2023-12-20T12:03:48;8.00;99.90
26954;DHT22;14508;50.924;11.600;2023-12-20T12:06:17;7.90;99.90
26954;DHT22;14508;50.924;11.600;2023-12-20T12:08:45;7.90;99.90
26954;DHT22;14508;50.924;11.600;2023-12-20T12:11:13;7.90;99.90
26954;DHT22;14508;50.924;11.600;2023-12-20T12:13:42;7.90;99.90
26954;DHT22;14508;50.924;11.600;2023-12-20T12:16:10;8.00;99.90
26954;DHT22;14508;50.924;11.600;2023-12-20T12:18:38;8.00;99.90
26954;DHT22;14508;50.924;11.600;2023-12-20T12:21:08;8.10;99.90
26954;DHT22;14508;50.924;11.600;2023-12-20T12:23:46;8.10;99.90
26954;DHT22;14508;50.924;11.600;2023-12-20T12:26:14;8.20;99.90
26954;DHT22;14508;50.924;11.600;2023-12-20T12:28:42;8.20;99.90
26954;DHT22;14508;50.924;11.600;2023-12-20T12:31:13;8.20;99.90
26954;DHT22;14508;50.924;11.600;2023-12-20T12:33:42;8.30;99.90
26954;DHT22;14508;50.924;11.600;2023-12-20T12:36:12;8.30;99.90
26954;DHT22;14508;50.924;11.600;2023-12-20T12:38:42;8.30;99.90
26954;DHT22;14508;50.924;11.600;2023-12-20T12:41:14;8.30;99.90
26954;DHT22;14508;50.924;11.600;2023-12-20T12:43:42;8.30;99.90
26954;DHT22;14508;50.924;11.600;2023-12-20T12:46:10;8.30;99.90
26954;DHT22;14508;50.924;11.600;2023-12-20T12:48:38;8.30;99.90
26954;DHT22;14508;50.924;11.600;2023-12-20T12:51:09;8.30;99.90
26954;DHT22;14508;50.924;11.600;2023-12-20T12:53:40;8.40;99.90
26954;DHT22;14508;50.924;11.600;2023-12-20T12:56:08;8.30;99.90
26954;DHT22;14508;50.924;11.600;2023-12-20T12:58:37;8.20;99.90
26954;DHT22;14508;50.924;11.600;2023-12-20T13:01:05;8.00;99.90
26954;DHT22;14508;50.924;11.600;2023-12-20T13:03:34;7.90;99.90
26954;DHT22;14508;50.924;11.600;2023-12-20T13:06:05;7.80;99.90
26954;DHT22;14508;50.924;11.600;2023-12-20T13:08:35;7.80;99.90
26954;DHT22;14508;50.924;11.600;2023-12-20T13:11:03;7.70;99.90
26954;DHT22;14508;50.924;11.600;2023-12-20T13:13:32;7.70;99.90
26954;DHT22;14508;50.924;11.600;2023-12-20T13:16:02;7.80;99.90
26954;DHT22;14508;50.924;11.600;2023-12-20T13:18:30;7.80;99.90
26954;DHT22;14508;50.924;11.600;2023-12-20T13:20:58;7.80;99.90
26954;DHT22;14508;50.924;11.600;2023-12-20T13:23:26;7.80;99.90
26954;DHT22;14508;50.924;11.600;2023-12-20T13:25:54;7.70;99.90
26954;DHT22;14508;50.924;11.600;2023-12-20T13:28:21;7.70;99.90
26954;DHT22;14508;50.924;11.600;2023-12-20T13:30:49;7.60;99.90
26954;DHT22;14508;50.924;11.600;2023-12-20T13:33:19;7.50;99.90
26954;DHT22;14508;50.924;11.600;2023-12-20T13:35:47;7.50;99.90
26954;DHT22;14508;50.924;11.600;2023-12-20T13:38:14;7.40;99.90
26954;DHT22;14508;50.924;11.600;2023-12-20T13:40:43;7.40;99.90
26954;DHT22;14508;50.924;11.600;2023-12-20T13:43:10;7.40;99.90
26954;DHT22;14508;50.924;11.600;2023-12-20T13:45:39;7.40;99.90
26954;DHT22;14508;50.924;11.600;2023-12-20T13:48:08;7.40;99.90
26954;DHT22;14508;50.924;11.600;2023-12-20T13:50:37;7.40;99.90
26954;DHT22;14508;50.924;11.600;2023-12-20T13:53:05;7.50;99.90
26954;DHT22;14508;50.924;11.600;2023-12-20T13:55:33;7.50;99.90
26954;DHT22;14508;50.924;11.600;2023-12-20T13:58:02;7.40;99.90
26954;DHT22;14508;50.924;11.600;2023-12-20T14:00:30;7.40;99.90
26954;DHT22;14508;50.924;11.600;2023-12-20T14:02:58;7.40;99.90
26954;DHT22;14508;50.924;11.600;2023-12-20T14:05:26;7.30;99.90
26954;DHT22;14508;50.924;11.600;2023-12-20T14:07:56;7.20;99.90
26954;DHT22;14508;50.924;11.600;2023-12-20T14:10:25;7.20;99.90
26954;DHT22;14508;50.924;11.600;2023-12-20T14:12:54;7.10;99.90
26954;DHT22;14508;50.924;11.600;2023-12-20T14:15:22;7.10;99.90
26954;DHT22;14508;50.924;11.600;2023-12-20T14:17:52;7.00;99.90
26954;DHT22;14508;50.924;11.600;2023-12-20T14:20:21;6.90;99.90
26954;DHT22;14508;50.924;11.600;2023-12-20T14:22:49;6.90;99.90
26954;DHT22;14508;50.924;11.600;2023-12-20T14:25:18;6.90;99.90
26954;DHT22;14508;50.924;11.600;2023-12-20T14:27:46;6.90;99.90
26954;DHT22;14508;50.924;11.600;2023-12-20T14:30:15;6.90;99.90
26954;DHT22;14508;50.924;11.600;2023-12-20T14:32:43;6.80;99.90
26954;DHT22;14508;50.924;11.600;2023-12-20T14:35:11;6.80;99.90
26954;DHT22;14508;50.924;11.600;2023-12-20T14:37:40;6.80;99.90
26954;DHT22;14508;50.924;11.600;2023-12-20T14:40:09;6.80;99.90
26954;DHT22;14508;50.924;11.600;2023-12-20T14:42:44;6.80;99.90
26954;DHT22;14508;50.924;11.600;2023-12-20T14:45:13;6.80;99.90
26954;DHT22;14508;50.924;11.600;2023-12-20T14:47:41;6.90;99.90
26954;DHT22;14508;50.924;11.600;2023-12-20T14:50:10;6.90;99.90
26954;DHT22;14508;50.924;11.600;2023-12-20T14:52:39;6.90;99.90
26954;DHT22;14508;50.924;11.600;2023-12-20T14:55:07;6.90;99.90
26954;DHT22;14508;50.924;11.600;2023-12-20T14:57:36;6.90;99.90
26954;DHT22;14508;50.924;11.600;2023-12-20T15:00:06;7.00;99.90
26954;DHT22;14508;50.924;11.600;2023-12-20T15:02:34;7.00;99.90
26954;DHT22;14508;50.924;11.600;2023-12-20T15:05:02;7.00;99.90
26954;DHT22;14508;50.924;11.600;2023-12-20T15:07:30;7.00;99.90
26954;DHT22;14508;50.924;11.600;2023-12-20T15:09:58;7.10;99.90
26954;DHT22;14508;50.924;11.600;2023-12-20T15:12:26;7.00;99.90
26954;DHT22;14508;50.924;11.600;2023-12-20T15:14:54;7.00;99.90
26954;DHT22;14508;50.924;11.600;2023-12-20T15:17:23;6.90;99.90
26954;DHT22;14508;50.924;11.600;2023-12-20T15:19:52;6.90;99.90
26954;DHT22;14508;50.924;11.600;2023-12-20T15:22:20;7.00;99.90
26954;DHT22;14508;50.924;11.600;2023-12-20T15:24:48;7.00;99.90
26954;DHT22;14508;50.924;11.600;2023-12-20T15:27:18;6.90;99.90
26954;DHT22;14508;50.924;11.600;2023-12-20T15:29:50;7.00;99.90
26954;DHT22;14508;50.924;11.600;2023-12-20T15:32:18;6.90;99.90
26954;DHT22;14508;50.924;11.600;2023-12-20T15:34:48;7.00;99.90
26954;DHT22;14508;50.924;11.600;2023-12-20T15:37:16;7.00;99.90
26954;DHT22;14508;50.924;11.600;2023-12-20T15:39:44;7.00;99.90